Share

Willacoochee, GA (31650)

8:26 AM EDT on April 23, 2014 (GMT -0400)
Hull Avenue, Nashville, GA (KGANASHV2) Elev 233 ft | 31.21 °N, 83.26 °W | Change Station

Current weather conditions updated 11 minutes ago

Clear
Clear
66.0 °F
Feels Like 66.0 °F
N
0.0
Wind Variable Wind from WSW
Sunrise 6:55 AM
Sunset 8:06 PM
Moon Last Quarter

Today is forecast to be Cooler than yesterday.

Pressure 29.93 in
Visibility 10.0 miles
Clouds Clear
Dew Point 64 °F
Humidity 93%
Rainfall 0.00 in
Snow Depth Not available.
UV 1 out of 16
Pollen 8.00 out of 12
Air Quality Not available.
Flu Activity Sporadic
METAR KHOE 231215Z AUTO 30003KT 10SM CLR 17/17 A2993 RMK AO2

More Conditions Fewer Conditions

Pressure 29.93 in
Visibility 10.0 miles
Clouds Clear
Dew Point 64 °F
Humidity 93%
Rainfall 0.00 in
Snow Depth Not available.
UV 1 out of 16
Pollen 8.00 out of 12
Air Quality Not available.
Flu Activity Sporadic
METAR KHOE 231215Z AUTO 30003KT 10SM CLR 17/17 A2993 RMK AO2

More Conditions Fewer Conditions

10-Day Weather Forecast

Almanac

Astronomy

Apr. 23, 2014 Rise Set
Actual Time 6:55 AM EDT 8:06 PM EDT
Civil Twilight 6:29 AM EDT 8:31 PM EDT
Nautical Twilight 5:59 AM EDT 9:01 PM EDT
Astronomical Twilight 5:28 AM EDT 9:32 PM EDT
Moon 3:02 AM EDT 2:35 PM EDT
Length of Visible Light 14h 01m
Length of Day
13h 10m
Tomorrow will be 1m 44s longer.
Last Quarter, 37% of the Moon is Illuminated
Today
Last Quarter
Apr 29
New
May 6
First Quarter
May 14
Full
May 21
Last Quarter

Today's Extremes

State Highs State Lows

Community

  • April Sunset
    April Sunset
  • Waiting..
    Waiting..
  • Sunset...
    Sunset...
  • Happy outdoor day
    Happy outdoor day
  • mystic afternoon....
    mystic afternoon....

WunderPhotos

Upload Photos

1,704,256 photos uploaded!

Nearby

Snow Depth

Station Depth Elevation
No new snow has been reported.

Coastal Water Temperatures

Place Temperature
No Stations Reporting

Earthquake Activity

City Distance Mag. Time & Date
No recent earthquake activity has been reported nearby.
Minimum magnitude displayed is 2.5.

Nearby Weather Stations

Station Location Temp. Dew Point Humidity Wind Precip. Elev Updated Type
Hull Avenue, Nashville, GA, Nashville, GA 66.0 °F 64 °F 93% WSW  at  0.0 mph - / hr 233 ft 8:14 AM EDT Normal
Douglas Golf Club Area, Douglas, GA 62.4 °F 62 °F 98% NNW  at  0.0 mph 0.00 in / hr 224 ft 8:26 AM EDT Normal

Show More Stations Show Fewer Stations

What do you think?

We're not finished. Please let us know what you like, what you don't like, and what you are still missing.